Time;durP1;ratioP1;P1;durP2;ratioP2;P2;SDS_P1;SDS_P2;PMS_P1;PMS_P2;Temp;Humidity;BMP_temperature;BMP_pressure;BME280_temperature;BME280_humidity;BME280_pressure;Samples;Min_cycle;Max_cycle;Signal;HPM_P1;HPM_P2
2022/12/14 00:01:34;;;;;;;14.80;7.87;;;-1.10;1.00;;;;;;5081169;28;20292;-56
2022/12/14 00:04:01;;;;;;;15.80;8.00;;;-1.10;1.00;;;;;;5077105;28;20612;-55
2022/12/14 00:06:30;;;;;;;15.60;7.87;;;-1.00;1.00;;;;;;5080020;28;20206;-56
2022/12/14 00:09:00;;;;;;;15.40;8.17;;;-1.00;1.00;;;;;;5078808;28;20231;-55
2022/12/14 00:11:27;;;;;;;15.00;7.63;;;-1.00;1.00;;;;;;5081903;28;20768;-61
2022/12/14 00:13:56;;;;;;;13.40;7.83;;;-1.10;1.00;;;;;;5081310;28;20237;-55
2022/12/14 00:16:24;;;;;;;14.67;8.13;;;-1.10;1.00;;;;;;5080655;28;20199;-56
2022/12/14 00:18:53;;;;;;;13.23;7.67;;;-1.10;1.00;;;;;;5081477;28;20617;-55
2022/12/14 00:21:20;;;;;;;13.13;6.97;;;-1.00;1.00;;;;;;5079166;28;20285;-56
2022/12/14 00:23:49;;;;;;;16.27;7.90;;;-1.00;1.00;;;;;;5082083;28;20227;-55
2022/12/14 00:26:23;;;;;;;11.87;7.43;;;-1.00;1.00;;;;;;5079617;28;20238;-56
2022/12/14 00:28:51;;;;;;;11.30;7.30;;;-0.90;1.00;;;;;;5080329;28;20204;-56
2022/12/14 00:31:19;;;;;;;14.03;7.37;;;-0.90;1.00;;;;;;5078243;28;20211;-54
2022/12/14 00:33:47;;;;;;;14.77;8.07;;;-0.90;1.00;;;;;;5062262;28;20207;-55
2022/12/14 00:36:14;;;;;;;15.63;7.77;;;-1.00;1.00;;;;;;5080253;28;20203;-55
2022/12/14 00:38:41;;;;;;;12.37;7.33;;;-1.00;1.00;;;;;;5080184;28;20211;-55
2022/12/14 00:41:09;;;;;;;13.80;7.63;;;-1.00;1.00;;;;;;5081035;28;20304;-56
2022/12/14 00:43:36;;;;;;;13.47;7.60;;;-1.00;1.00;;;;;;5081217;28;20212;-55
2022/12/14 00:46:03;;;;;;;13.50;7.57;;;-1.10;1.00;;;;;;5079972;28;20568;-55
2022/12/14 00:48:31;;;;;;;15.57;7.40;;;-1.10;1.00;;;;;;5081176;28;20193;-56
2022/12/14 00:50:58;;;;;;;16.93;7.30;;;-1.10;1.00;;;;;;5081823;28;20251;-57
2022/12/14 00:53:25;;;;;;;13.10;7.13;;;-1.20;1.00;;;;;;5081174;28;20296;-54
2022/12/14 00:55:52;;;;;;;14.93;7.13;;;-1.20;1.00;;;;;;5078042;28;20884;-60
2022/12/14 00:58:21;;;;;;;13.70;7.33;;;-1.30;1.00;;;;;;5073136;28;20197;-54
2022/12/14 01:00:59;;;;;;;13.57;7.23;;;-1.30;1.00;;;;;;5081800;28;20591;-55
2022/12/14 01:03:25;;;;;;;15.53;7.37;;;-1.20;1.00;;;;;;5080601;28;20214;-56
2022/12/14 01:05:53;;;;;;;12.27;6.90;;;-1.20;1.00;;;;;;5079916;28;20693;-54
2022/12/14 01:08:20;;;;;;;11.10;7.37;;;-1.30;1.00;;;;;;5081304;28;20197;-54
2022/12/14 01:10:47;;;;;;;14.17;7.93;;;-1.30;1.00;;;;;;5081067;28;20671;-54
2022/12/14 01:13:14;;;;;;;13.63;8.17;;;-1.20;1.00;;;;;;5079878;28;20287;-55
2022/12/14 01:15:41;;;;;;;15.90;8.90;;;-1.30;1.00;;;;;;5081295;28;20648;-55
2022/12/14 01:18:08;;;;;;;14.03;8.27;;;-1.30;1.00;;;;;;5081280;28;20585;-54
2022/12/14 01:20:34;;;;;;;15.33;8.13;;;-1.30;1.00;;;;;;5078086;28;20201;-55
2022/12/14 01:23:01;;;;;;;15.53;7.60;;;-1.30;1.00;;;;;;5079585;28;20212;-53
2022/12/14 01:25:28;;;;;;;12.43;6.87;;;-1.30;1.00;;;;;;5079943;28;20287;-54
2022/12/14 01:27:55;;;;;;;17.17;7.50;;;-1.30;1.00;;;;;;5080696;28;20694;-55
2022/12/14 01:30:22;;;;;;;13.80;7.53;;;-1.20;1.00;;;;;;5078487;28;20199;-54
2022/12/14 01:32:48;;;;;;;10.63;6.83;;;-1.20;1.00;;;;;;5062232;28;20852;-54
2022/12/14 01:35:16;;;;;;;11.63;7.07;;;-1.20;1.00;;;;;;5080729;28;20206;-57
2022/12/14 01:37:43;;;;;;;15.23;7.67;;;-1.30;1.00;;;;;;5078478;28;20240;-55
2022/12/14 01:40:10;;;;;;;17.57;7.90;;;-1.20;1.00;;;;;;5073318;28;20199;-55
2022/12/14 01:42:37;;;;;;;15.30;6.63;;;-1.20;1.00;;;;;;5075908;28;20675;-55
2022/12/14 01:45:05;;;;;;;13.57;7.33;;;-1.20;1.00;;;;;;5081178;28;20290;-55
2022/12/14 01:47:43;;;;;;;12.13;6.90;;;-1.20;1.00;;;;;;5079512;28;20899;-55
2022/12/14 01:50:21;;;;;;;12.40;6.60;;;-1.30;1.00;;;;;;5079571;28;20196;-55
2022/12/14 01:52:52;;;;;;;12.50;7.03;;;-1.20;1.00;;;;;;5077359;28;20308;-54
2022/12/14 01:55:34;;;;;;;13.23;7.10;;;-1.20;1.00;;;;;;5075678;28;20202;-54
2022/12/14 01:58:09;;;;;;;12.00;6.50;;;-1.20;1.00;;;;;;5073384;28;20420;-54
2022/12/14 02:00:37;;;;;;;14.93;6.93;;;-1.20;1.00;;;;;;5079578;28;20267;-54
2022/12/14 02:03:11;;;;;;;17.47;8.17;;;-1.20;1.00;;;;;;5078653;28;20739;-54
2022/12/14 02:05:44;;;;;;;14.30;7.63;;;-1.20;1.00;;;;;;5076877;28;20678;-55
2022/12/14 02:08:12;;;;;;;13.80;7.53;;;-1.10;1.00;;;;;;5078360;28;20311;-56
2022/12/14 02:10:39;;;;;;;12.83;6.23;;;-1.10;1.00;;;;;;5078914;28;20233;-55
2022/12/14 02:13:31;;;;;;;10.43;6.90;;;-1.20;1.00;;;;;;5079210;28;20197;-55
2022/12/14 02:15:58;;;;;;;11.33;6.60;;;-1.20;1.00;;;;;;5078094;28;20691;-56
2022/12/14 02:18:29;;;;;;;12.20;6.87;;;-1.20;1.00;;;;;;5078118;28;20296;-56
2022/12/14 02:21:05;;;;;;;15.13;7.37;;;-1.30;1.00;;;;;;5077877;28;20204;-56
2022/12/14 02:23:58;;;;;;;14.73;6.10;;;-1.30;1.00;;;;;;5078259;28;20344;-56
2022/12/14 02:26:43;;;;;;;13.60;6.80;;;-1.20;1.00;;;;;;5042497;28;20215;-54
2022/12/14 02:29:38;;;;;;;12.83;6.97;;;-1.20;1.00;;;;;;5077749;28;20214;-54
2022/12/14 02:32:08;;;;;;;13.07;6.03;;;-1.20;1.00;;;;;;5070867;28;20275;-56
2022/12/14 02:35:07;;;;;;;10.43;6.23;;;-1.30;1.00;;;;;;5078258;28;20273;-56
2022/12/14 02:37:46;;;;;;;11.73;6.90;;;-1.20;1.00;;;;;;5033733;28;20654;-56
2022/12/14 02:40:54;;;;;;;10.80;6.20;;;-1.20;1.00;;;;;;5061212;28;20203;-56
2022/12/14 02:43:39;;;;;;;9.13;5.87;;;-1.10;1.00;;;;;;5024673;28;20319;-55
2022/12/14 02:46:22;;;;;;;10.67;6.80;;;-1.20;1.00;;;;;;5074007;28;20202;-54
2022/12/14 02:49:10;;;;;;;9.73;6.07;;;-1.20;1.00;;;;;;5075559;28;20213;-54
2022/12/14 02:52:01;;;;;;;11.67;5.83;;;-1.30;1.00;;;;;;5070702;28;20205;-54
2022/12/14 02:54:55;;;;;;;15.10;6.87;;;-1.20;1.00;;;;;;5072707;28;20208;-54
2022/12/14 02:57:26;;;;;;;10.23;6.30;;;-1.20;1.00;;;;;;5058666;28;20234;-54
2022/12/14 02:59:59;;;;;;;13.43;5.53;;;-1.20;1.00;;;;;;5071377;28;20710;-57
2022/12/14 03:02:27;;;;;;;14.43;7.10;;;-1.20;1.00;;;;;;5071029;28;20321;-53
2022/12/14 03:04:54;;;;;;;14.37;7.10;;;-1.20;1.00;;;;;;5070553;28;20246;-54
2022/12/14 03:07:43;;;;;;;12.53;6.93;;;-1.20;1.00;;;;;;5071126;28;20201;-54
2022/12/14 03:10:26;;;;;;;10.10;5.70;;;-1.10;1.00;;;;;;5071470;28;20229;-54
2022/12/14 03:12:56;;;;;;;11.07;6.60;;;-1.00;1.00;;;;;;5072184;28;20650;-54
2022/12/14 03:15:24;;;;;;;10.80;6.07;;;-1.10;99.90;;;;;;5072932;28;20205;-54
2022/12/14 03:17:56;;;;;;;9.83;6.07;;;-1.10;99.90;;;;;;5073459;28;20201;-54
2022/12/14 03:20:25;;;;;;;10.63;6.30;;;-1.00;99.90;;;;;;5070273;28;20227;-55
2022/12/14 03:23:02;;;;;;;11.90;6.53;;;-1.00;99.90;;;;;;5074267;28;20213;-54
2022/12/14 03:25:43;;;;;;;11.80;6.27;;;-1.00;99.90;;;;;;5068195;28;20215;-56
2022/12/14 03:28:19;;;;;;;12.37;6.70;;;-0.90;99.90;;;;;;5070293;28;20250;-55
2022/12/14 03:30:51;;;;;;;11.23;6.20;;;-0.90;99.90;;;;;;5070562;28;20281;-54
2022/12/14 03:33:29;;;;;;;10.63;6.43;;;-0.80;99.90;;;;;;5069002;28;20351;-54
2022/12/14 03:35:57;;;;;;;13.77;7.00;;;-0.80;99.90;;;;;;5070768;28;20429;-56
2022/12/14 03:38:34;;;;;;;11.17;6.50;;;-0.80;99.90;;;;;;5071366;28;20566;-54
2022/12/14 03:41:17;;;;;;;11.13;6.40;;;-0.70;99.90;;;;;;5071298;28;20235;-54
2022/12/14 03:43:51;;;;;;;13.30;6.00;;;-0.70;99.90;;;;;;5072292;28;20623;-54
2022/12/14 03:46:35;;;;;;;10.63;5.83;;;-0.70;99.90;;;;;;5069516;28;20300;-54
2022/12/14 03:49:14;;;;;;;11.37;6.03;;;-0.60;99.90;;;;;;5069387;28;20538;-55
2022/12/14 03:51:51;;;;;;;8.97;6.03;;;-0.60;99.90;;;;;;5069073;28;20206;-53
2022/12/14 03:54:36;;;;;;;9.90;5.90;;;-0.60;99.90;;;;;;5067801;28;20690;-55
2022/12/14 03:57:31;;;;;;;10.77;5.93;;;-0.60;99.90;;;;;;5070742;28;20236;-54
2022/12/14 04:00:06;;;;;;;11.23;6.30;;;-0.60;99.90;;;;;;5071319;28;20567;-55
2022/12/14 04:02:41;;;;;;;13.07;7.17;;;-0.60;99.90;;;;;;5072152;28;20209;-55
2022/12/14 04:05:15;;;;;;;10.33;6.33;;;-0.60;99.90;;;;;;5049505;28;20251;-54
2022/12/14 04:08:18;;;;;;;10.70;6.47;;;-0.60;99.90;;;;;;5070374;28;20198;-55
2022/12/14 04:19:48;;;;;;;11.73;6.07;;;-0.60;99.90;;;;;;5071509;28;20759;-54
2022/12/14 04:22:22;;;;;;;10.47;5.40;;;-0.70;99.90;;;;;;5075703;28;20574;-54
2022/12/14 04:27:45;;;;;;;10.43;5.60;;;-0.70;99.90;;;;;;5075439;28;20192;-55
2022/12/14 04:30:13;;;;;;;11.87;6.47;;;-0.70;99.90;;;;;;5077645;28;20209;-54
2022/12/14 04:32:54;;;;;;;9.43;5.67;;;-0.70;99.90;;;;;;5078149;28;20200;-55
2022/12/14 04:35:36;;;;;;;11.37;6.23;;;-0.70;99.90;;;;;;5077294;28;20228;-55
2022/12/14 04:38:12;;;;;;;8.37;6.03;;;-0.80;99.90;;;;;;5075400;28;20205;-57
2022/12/14 04:40:45;;;;;;;11.80;6.87;;;-0.80;99.90;;;;;;5076093;28;20296;-54
2022/12/14 04:43:17;;;;;;;12.67;6.93;;;-0.80;99.90;;;;;;5076306;28;20205;-56
2022/12/14 04:46:12;;;;;;;12.83;6.70;;;-1.00;99.90;;;;;;5076384;28;20202;-55
2022/12/14 04:49:06;;;;;;;10.17;6.40;;;-1.00;99.90;;;;;;5073050;28;20205;-55
2022/12/14 04:51:56;;;;;;;11.27;5.93;;;-1.00;1.00;;;;;;5077334;28;20568;-54
2022/12/14 04:54:39;;;;;;;10.97;6.37;;;-1.10;99.90;;;;;;5079137;28;20632;-54
2022/12/14 04:57:27;;;;;;;19.63;7.17;;;-1.20;1.00;;;;;;5079244;28;20365;-54
2022/12/14 04:59:55;;;;;;;15.63;6.63;;;-1.10;1.00;;;;;;5080247;28;20205;-56
2022/12/14 05:02:39;;;;;;;12.00;5.87;;;-1.10;99.90;;;;;;5081161;28;20588;-56
2022/12/14 05:05:13;;;;;;;12.57;6.03;;;-1.10;99.90;;;;;;5079553;28;20220;-57
2022/12/14 05:08:01;;;;;;;9.27;5.67;;;-1.10;99.90;;;;;;5079239;28;20228;-58
2022/12/14 05:10:44;;;;;;;10.33;6.23;;;-1.10;99.90;;;;;;5079218;28;20232;-54
2022/12/14 05:13:30;;;;;;;15.60;6.50;;;-1.00;1.00;;;;;;5080627;28;20199;-55
2022/12/14 05:15:58;;;;;;;8.23;5.17;;;-0.90;99.90;;;;;;5080952;28;20615;-57
2022/12/14 05:18:25;;;;;;;11.93;5.67;;;-0.90;99.90;;;;;;5079710;28;20202;-55
2022/12/14 05:20:51;;;;;;;9.30;6.10;;;-1.00;99.90;;;;;;5079476;28;20210;-55
2022/12/14 05:23:18;;;;;;;9.83;7.10;;;-0.90;99.90;;;;;;5069154;28;20206;-56
2022/12/14 05:25:45;;;;;;;10.17;5.63;;;-0.80;99.90;;;;;;5073105;28;20617;-54
2022/12/14 05:28:15;;;;;;;10.43;5.70;;;-0.80;99.90;;;;;;5076870;28;20217;-56
2022/12/14 05:30:41;;;;;;;8.77;5.20;;;-0.80;99.90;;;;;;5077548;28;20217;-56
2022/12/14 05:33:19;;;;;;;10.10;6.00;;;-0.80;99.90;;;;;;5074593;28;20192;-55
2022/12/14 05:35:46;;;;;;;10.70;5.80;;;-0.80;99.90;;;;;;5078442;28;20287;-55
2022/12/14 05:38:13;;;;;;;14.53;6.23;;;-0.80;99.90;;;;;;5080537;28;20658;-55
2022/12/14 05:40:39;;;;;;;9.60;5.43;;;-0.80;99.90;;;;;;5082628;28;20609;-58
2022/12/14 05:43:12;;;;;;;10.23;5.73;;;-0.70;99.90;;;;;;5080455;28;20745;-56
2022/12/14 05:45:38;;;;;;;9.67;5.73;;;-0.70;99.90;;;;;;5078968;28;20256;-55
2022/12/14 05:48:05;;;;;;;10.43;5.70;;;-0.70;99.90;;;;;;5076059;28;20205;-55
2022/12/14 05:50:32;;;;;;;11.63;6.60;;;-0.70;99.90;;;;;;5079104;28;20205;-55
2022/12/14 05:52:59;;;;;;;9.70;5.60;;;-0.70;99.90;;;;;;5080375;28;20214;-55
2022/12/14 05:55:26;;;;;;;13.53;5.47;;;-0.60;99.90;;;;;;5078782;28;20205;-55
2022/12/14 05:57:52;;;;;;;15.87;5.73;;;-0.50;99.90;;;;;;5078693;28;20242;-55
2022/12/14 06:00:20;;;;;;;13.13;6.20;;;-0.50;99.90;;;;;;5079526;28;20211;-54
2022/12/14 06:02:47;;;;;;;11.37;5.93;;;-0.60;99.90;;;;;;5079658;28;20875;-54
2022/12/14 06:05:14;;;;;;;12.60;6.90;;;-0.60;99.90;;;;;;5078337;28;20222;-55
2022/12/14 06:07:41;;;;;;;8.73;5.40;;;-0.60;99.90;;;;;;5078520;28;20292;-59
2022/12/14 06:10:08;;;;;;;11.57;5.80;;;-0.60;99.90;;;;;;5078787;28;20663;-55
2022/12/14 06:12:34;;;;;;;9.10;5.17;;;-0.60;99.90;;;;;;5079326;28;20233;-55
2022/12/14 06:15:01;;;;;;;10.73;6.33;;;-0.50;99.90;;;;;;5079638;28;20304;-55
2022/12/14 06:17:28;;;;;;;9.20;5.77;;;-0.60;99.90;;;;;;5079600;28;20220;-54
2022/12/14 06:19:55;;;;;;;10.90;5.80;;;-0.60;99.90;;;;;;5076735;28;20348;-56
2022/12/14 06:22:21;;;;;;;10.27;6.07;;;-0.60;99.90;;;;;;5071158;28;20240;-54
2022/12/14 06:24:48;;;;;;;9.57;5.87;;;-0.60;99.90;;;;;;5074348;28;20218;-55
2022/12/14 06:27:15;;;;;;;10.27;5.43;;;-0.50;99.90;;;;;;5075660;28;20680;-56
2022/12/14 06:29:42;;;;;;;12.30;5.90;;;-0.60;99.90;;;;;;5077660;28;20350;-55
2022/12/14 06:32:08;;;;;;;9.93;5.97;;;-0.60;99.90;;;;;;5078058;28;20288;-54
2022/12/14 06:34:35;;;;;;;9.87;5.87;;;-0.50;99.90;;;;;;5075617;28;20228;-54
2022/12/14 06:37:06;;;;;;;11.23;6.70;;;-0.70;99.90;;;;;;5074844;28;20232;-54
2022/12/14 06:39:33;;;;;;;10.40;5.87;;;-0.80;99.90;;;;;;5069789;28;20313;-55
2022/12/14 06:41:59;;;;;;;9.70;6.93;;;-0.90;99.90;;;;;;5075897;28;20274;-55
2022/12/14 06:44:26;;;;;;;10.00;6.00;;;-0.90;99.90;;;;;;5073199;28;20231;-64
2022/12/14 06:46:54;;;;;;;10.63;6.57;;;-0.80;99.90;;;;;;5075758;28;20553;-55
2022/12/14 06:49:21;;;;;;;8.97;5.60;;;-0.80;99.90;;;;;;5070209;28;20208;-54
2022/12/14 06:51:49;;;;;;;9.10;6.13;;;-0.80;99.90;;;;;;4710559;28;10000390;-56
2022/12/14 06:54:16;;;;;;;12.50;7.03;;;-0.70;99.90;;;;;;5069014;28;20205;-54
2022/12/14 06:56:45;;;;;;;10.03;5.73;;;-0.80;99.90;;;;;;5071348;28;20238;-61
2022/12/14 06:59:14;;;;;;;12.90;6.93;;;-0.80;99.90;;;;;;5069562;28;20229;-55
2022/12/14 07:01:41;;;;;;;10.97;6.43;;;-0.90;99.90;;;;;;5051631;28;20204;-55
2022/12/14 07:04:09;;;;;;;13.47;7.03;;;-0.90;99.90;;;;;;5075111;28;20287;-58
2022/12/14 07:06:38;;;;;;;12.40;6.40;;;-0.90;1.00;;;;;;5073737;28;20211;-55
2022/12/14 07:09:07;;;;;;;12.70;6.70;;;-0.90;1.00;;;;;;5074669;28;20245;-54
2022/12/14 07:11:34;;;;;;;13.60;6.33;;;-1.10;1.00;;;;;;5075377;28;20306;-55
2022/12/14 07:14:05;;;;;;;12.47;7.07;;;-1.00;1.00;;;;;;5077810;28;20937;-54
2022/12/14 07:16:35;;;;;;;11.73;7.27;;;-1.10;1.00;;;;;;5076751;28;20660;-55
2022/12/14 07:19:03;;;;;;;10.03;5.87;;;-1.20;1.00;;;;;;5074178;28;20205;-54
2022/12/14 07:21:31;;;;;;;11.27;6.63;;;-1.20;1.00;;;;;;5070433;28;20188;-54
2022/12/14 07:23:59;;;;;;;12.30;7.20;;;-1.30;1.00;;;;;;5077976;28;20196;-55
2022/12/14 07:26:27;;;;;;;10.93;6.67;;;-1.20;1.00;;;;;;5078586;28;20197;-55
2022/12/14 07:28:54;;;;;;;10.63;6.23;;;-1.30;1.00;;;;;;5077654;28;20198;-55
2022/12/14 07:31:23;;;;;;;11.00;6.40;;;-1.30;1.00;;;;;;5073906;28;20279;-55
2022/12/14 07:33:58;;;;;;;10.67;7.27;;;-1.40;1.00;;;;;;5075069;28;20195;-54
2022/12/14 07:36:27;;;;;;;10.70;6.50;;;-1.40;1.00;;;;;;5067623;28;20719;-56
2022/12/14 07:38:54;;;;;;;12.67;6.87;;;-1.50;1.00;;;;;;5072036;28;20208;-56
2022/12/14 07:41:31;;;;;;;9.73;6.27;;;-1.40;1.00;;;;;;5076896;28;20198;-55
2022/12/14 07:44:00;;;;;;;10.30;6.33;;;-1.40;1.00;;;;;;5074435;28;20188;-56
2022/12/14 07:46:28;;;;;;;11.27;7.33;;;-1.40;1.00;;;;;;5078862;28;20201;-55
2022/12/14 07:48:56;;;;;;;14.43;7.20;;;-1.50;1.00;;;;;;5080815;28;20218;-55
2022/12/14 07:51:30;;;;;;;12.53;6.53;;;-1.50;1.00;;;;;;5078416;28;20294;-55
2022/12/14 07:53:58;;;;;;;11.53;5.73;;;-1.50;1.00;;;;;;5079533;28;20718;-55
2022/12/14 07:56:28;;;;;;;11.87;6.80;;;-1.50;1.00;;;;;;5077576;28;20720;-55
2022/12/14 07:58:56;;;;;;;8.60;5.87;;;-1.60;1.00;;;;;;5080352;28;20248;-55
2022/12/14 08:01:26;;;;;;;12.67;6.37;;;-1.70;1.00;;;;;;5078769;28;20203;-55
2022/12/14 08:03:56;;;;;;;11.33;5.80;;;-1.60;1.00;;;;;;5081420;28;20290;-55
2022/12/14 08:06:25;;;;;;;10.67;5.90;;;-1.60;1.00;;;;;;5078717;28;20908;-55
2022/12/14 08:08:53;;;;;;;10.77;5.63;;;-1.60;1.00;;;;;;5078028;28;20311;-54
2022/12/14 08:11:23;;;;;;;11.40;6.13;;;-1.60;1.00;;;;;;5060890;28;20884;-55
2022/12/14 08:13:54;;;;;;;11.67;5.67;;;-1.50;1.00;;;;;;5079461;28;20208;-55
2022/12/14 08:16:22;;;;;;;11.20;6.20;;;-1.50;1.00;;;;;;5079222;28;20206;-56
2022/12/14 08:18:51;;;;;;;8.80;5.77;;;-1.50;1.00;;;;;;5080939;28;20211;-56
2022/12/14 08:21:21;;;;;;;11.67;5.80;;;-1.40;1.00;;;;;;5077876;28;20204;-55
2022/12/14 08:23:49;;;;;;;11.70;6.17;;;-1.50;1.00;;;;;;5078067;28;20653;-55
2022/12/14 08:26:17;;;;;;;8.97;5.60;;;-1.50;1.00;;;;;;5081167;28;20213;-55
2022/12/14 08:28:44;;;;;;;11.20;6.27;;;-1.50;1.00;;;;;;5080213;28;20578;-62
2022/12/14 08:31:16;;;;;;;10.80;5.53;;;-1.50;1.00;;;;;;5077947;28;20721;-62
2022/12/14 08:33:44;;;;;;;12.07;5.67;;;-1.40;1.00;;;;;;5076292;28;20293;-64
2022/12/14 08:36:16;;;;;;;9.87;6.63;;;-1.30;1.00;;;;;;5076167;28;20212;-62
2022/12/14 08:38:44;;;;;;;10.03;5.43;;;-1.30;1.00;;;;;;5077677;28;20277;-62
2022/12/14 08:41:13;;;;;;;10.77;5.77;;;-1.20;1.00;;;;;;5078642;28;20298;-63
2022/12/14 08:43:40;;;;;;;8.60;5.80;;;-1.30;1.00;;;;;;5077189;28;20208;-62
2022/12/14 08:46:09;;;;;;;11.53;5.70;;;-1.30;1.00;;;;;;5079994;28;20835;-56
2022/12/14 08:48:36;;;;;;;8.17;6.23;;;-1.10;99.90;;;;;;5075175;28;20210;-55
2022/12/14 08:51:08;;;;;;;12.60;6.83;;;-0.90;99.90;;;;;;5074027;28;20192;-62
2022/12/14 08:53:36;;;;;;;10.53;5.60;;;-0.90;99.90;;;;;;5077378;28;20205;-62
2022/12/14 08:56:11;;;;;;;9.63;5.83;;;-0.90;99.90;;;;;;5077470;28;20252;-63
2022/12/14 08:58:39;;;;;;;10.70;6.00;;;-1.00;99.90;;;;;;5066928;28;20210;-64
2022/12/14 09:01:12;;;;;;;10.37;6.63;;;-1.10;99.90;;;;;;5073227;28;20224;-64
2022/12/14 09:03:41;;;;;;;8.67;5.77;;;-1.20;99.90;;;;;;5072509;28;20205;-64
2022/12/14 09:06:10;;;;;;;12.63;6.57;;;-1.20;1.00;;;;;;5055050;28;20304;-66
2022/12/14 09:08:37;;;;;;;11.80;6.00;;;-1.20;99.90;;;;;;5077823;28;20320;-64
2022/12/14 09:11:05;;;;;;;9.53;5.33;;;-1.10;99.90;;;;;;5078112;28;20221;-64
2022/12/14 09:13:32;;;;;;;10.87;5.70;;;-1.20;99.90;;;;;;5074973;28;20328;-63
2022/12/14 09:16:03;;;;;;;13.33;6.47;;;-1.30;99.90;;;;;;5080000;28;20556;-61
2022/12/14 09:18:30;;;;;;;9.03;5.70;;;-1.00;99.90;;;;;;5076623;28;20236;-55
2022/12/14 09:20:58;;;;;;;9.57;5.70;;;-0.80;99.90;;;;;;5079636;28;20199;-55
2022/12/14 09:23:27;;;;;;;13.80;5.60;;;-0.40;99.90;;;;;;5076581;28;20209;-55
2022/12/14 09:26:04;;;;;;;10.50;6.57;;;-0.20;99.90;;;;;;5066000;28;20288;-56
2022/12/14 09:28:33;;;;;;;9.80;5.53;;;0.00;99.90;;;;;;5068142;28;20219;-56
2022/12/14 09:31:02;;;;;;;12.77;6.63;;;-0.10;99.90;;;;;;5078609;28;20219;-58
2022/12/14 09:33:29;;;;;;;9.63;5.93;;;0.00;99.90;;;;;;5077412;28;20624;-56
2022/12/14 09:36:05;;;;;;;10.50;6.10;;;0.20;71.00;;;;;;5077401;28;20247;-64
2022/12/14 09:38:34;;;;;;;11.53;6.57;;;0.10;91.80;;;;;;5078273;28;20199;-61
2022/12/14 09:41:14;;;;;;;12.00;6.27;;;0.00;85.10;;;;;;5076391;28;20199;-56
2022/12/14 09:43:46;;;;;;;10.10;5.47;;;0.00;99.90;;;;;;5078245;28;20195;-56
2022/12/14 09:46:27;;;;;;;9.80;5.60;;;0.00;99.90;;;;;;5077621;28;20311;-56
2022/12/14 09:48:56;;;;;;;11.10;5.70;;;0.10;99.90;;;;;;5076537;28;20749;-56
2022/12/14 09:51:29;;;;;;;9.90;5.57;;;0.40;29.40;;;;;;5076852;28;20238;-55
2022/12/14 09:54:05;;;;;;;8.73;5.57;;;0.40;33.30;;;;;;5075517;28;20676;-55
2022/12/14 09:56:33;;;;;;;10.70;5.57;;;0.60;1.00;;;;;;5076218;28;20237;-56
2022/12/14 09:59:01;;;;;;;15.23;6.60;;;0.80;1.00;;;;;;5075780;28;20200;-55
2022/12/14 10:02:08;;;;;;;9.70;5.80;;;1.20;1.00;;;;;;5075220;28;20260;-56
2022/12/14 10:05:24;;;;;;;10.77;6.33;;;1.30;1.00;;;;;;5042360;28;20320;-54
2022/12/14 10:08:01;;;;;;;9.87;5.83;;;1.80;1.00;;;;;;5060170;28;20309;-56
2022/12/14 10:11:00;;;;;;;12.37;5.67;;;2.10;1.00;;;;;;5074698;28;20218;-57
2022/12/14 10:13:43;;;;;;;8.87;5.67;;;2.00;1.00;;;;;;5035501;28;20213;-55
2022/12/14 10:16:47;;;;;;;11.90;5.20;;;2.10;1.00;;;;;;5073699;28;20218;-56
2022/12/14 10:19:17;;;;;;;8.80;5.90;;;1.90;1.00;;;;;;5069795;28;20287;-54
2022/12/14 10:21:59;;;;;;;10.93;6.10;;;2.10;1.00;;;;;;5073500;28;20203;-55
2022/12/14 10:24:42;;;;;;;7.77;5.80;;;2.30;1.00;;;;;;5077318;28;20626;-54
2022/12/14 10:27:13;;;;;;;14.90;6.30;;;2.20;1.00;;;;;;5078365;28;20194;-57
2022/12/14 10:29:49;;;;;;;10.17;5.07;;;2.10;1.00;;;;;;5078714;28;20199;-54
2022/12/14 10:32:24;;;;;;;8.63;5.87;;;1.90;1.00;;;;;;5074866;28;20218;-54
2022/12/14 10:34:51;;;;;;;10.47;6.07;;;2.00;1.00;;;;;;5071297;28;20205;-54
2022/12/14 10:37:40;;;;;;;9.23;6.13;;;1.70;1.00;;;;;;5075345;28;20304;-54
2022/12/14 10:40:21;;;;;;;10.93;5.83;;;2.00;1.00;;;;;;5076710;28;20191;-54
2022/12/14 10:43:02;;;;;;;9.90;5.83;;;1.80;1.00;;;;;;5075675;28;20198;-55
2022/12/14 10:45:59;;;;;;;8.47;5.27;;;1.90;1.00;;;;;;5075630;28;20230;-55
2022/12/14 10:48:47;;;;;;;11.13;5.87;;;1.90;1.00;;;;;;5077935;28;20258;-55
2022/12/14 10:51:32;;;;;;;9.53;6.03;;;2.00;1.00;;;;;;5075057;28;20202;-54
2022/12/14 10:54:21;;;;;;;8.83;5.77;;;1.60;1.00;;;;;;5056338;28;20373;-60
2022/12/14 10:56:49;;;;;;;8.73;5.23;;;1.80;1.00;;;;;;5074433;28;20234;-55
2022/12/14 10:59:25;;;;;;;7.97;5.67;;;1.90;1.00;;;;;;5064558;28;20209;-55
2022/12/14 11:01:56;;;;;;;13.03;5.80;;;2.10;1.00;;;;;;5070495;28;20287;-55
2022/12/14 11:04:46;;;;;;;11.17;6.47;;;2.10;1.00;;;;;;5073349;28;20300;-54
2022/12/14 11:07:14;;;;;;;13.03;5.77;;;2.20;1.00;;;;;;5071274;28;20256;-54
2022/12/14 11:09:42;;;;;;;9.20;5.33;;;2.20;1.00;;;;;;5076841;28;20194;-54
2022/12/14 11:12:12;;;;;;;14.07;6.47;;;2.00;1.00;;;;;;5073025;28;20308;-55
2022/12/14 11:14:52;;;;;;;11.33;6.07;;;2.30;1.00;;;;;;5075209;28;20206;-55
2022/12/14 11:17:33;;;;;;;9.30;6.03;;;2.30;1.00;;;;;;5073781;28;20230;-55
2022/12/14 11:20:18;;;;;;;11.97;5.67;;;2.10;1.00;;;;;;5076085;28;20260;-55
2022/12/14 11:22:51;;;;;;;13.50;5.40;;;2.20;1.00;;;;;;5076806;28;20243;-54
2022/12/14 11:25:36;;;;;;;7.77;5.77;;;2.40;1.00;;;;;;5080115;28;20312;-54
2022/12/14 11:28:40;;;;;;;10.63;5.77;;;2.50;1.00;;;;;;5079453;28;20672;-55
2022/12/14 11:31:12;;;;;;;9.27;5.37;;;2.60;1.00;;;;;;5062012;28;21412;-55
2022/12/14 11:33:44;;;;;;;10.73;5.10;;;2.50;1.00;;;;;;5072401;28;20327;-54
2022/12/14 11:36:26;;;;;;;13.50;5.83;;;2.60;1.00;;;;;;5073136;28;20442;-54
2022/12/14 11:39:05;;;;;;;8.60;5.73;;;2.70;1.00;;;;;;5075598;28;20610;-55
2022/12/14 11:41:39;;;;;;;8.47;5.33;;;2.90;1.00;;;;;;5073893;28;20206;-54
2022/12/14 11:44:15;;;;;;;11.73;5.63;;;3.10;1.00;;;;;;5077360;28;20242;-55
2022/12/14 11:46:57;;;;;;;10.13;5.70;;;3.30;1.00;;;;;;5070150;28;20588;-55
2022/12/14 11:49:29;;;;;;;11.13;5.80;;;3.50;1.00;;;;;;5069815;28;20201;-56
2022/12/14 11:52:23;;;;;;;9.13;5.27;;;4.00;1.00;;;;;;5071421;28;20652;-55
2022/12/14 11:54:53;;;;;;;9.70;5.40;;;4.00;1.00;;;;;;5071064;28;20259;-55
2022/12/14 11:57:26;;;;;;;8.70;5.00;;;4.10;1.00;;;;;;5077003;28;20743;-56
2022/12/14 12:00:23;;;;;;;7.80;5.30;;;4.10;1.00;;;;;;5074973;28;20286;-55
2022/12/14 12:02:52;;;;;;;9.60;5.20;;;4.00;1.00;;;;;;5077347;28;20199;-56
2022/12/14 12:05:21;;;;;;;10.17;5.50;;;4.00;1.00;;;;;;5070271;28;20486;-56
2022/12/14 12:07:48;;;;;;;9.37;4.80;;;3.80;1.00;;;;;;5077773;28;20255;-54
2022/12/14 12:10:20;;;;;;;14.73;5.63;;;3.60;1.00;;;;;;5077349;28;20229;-55
2022/12/14 12:12:50;;;;;;;7.33;4.77;;;3.50;1.00;;;;;;5072970;28;20809;-55
2022/12/14 12:15:29;;;;;;;10.80;5.17;;;3.40;1.00;;;;;;5071408;28;20280;-55
2022/12/14 12:18:07;;;;;;;8.27;5.23;;;3.30;1.00;;;;;;5076535;28;20210;-55
2022/12/14 12:20:36;;;;;;;8.50;5.53;;;3.40;1.00;;;;;;5077722;28;20191;-55
2022/12/14 12:23:11;;;;;;;7.97;4.57;;;3.30;1.00;;;;;;5079735;28;21540;-57
2022/12/14 12:25:40;;;;;;;11.43;4.90;;;3.50;1.00;;;;;;5076309;28;20214;-54
2022/12/14 12:28:33;;;;;;;13.07;5.83;;;3.50;1.00;;;;;;5076663;28;20203;-56
2022/12/14 12:31:13;;;;;;;8.43;4.57;;;3.50;1.00;;;;;;5072469;28;20203;-55
2022/12/14 12:33:56;;;;;;;8.27;5.50;;;3.70;1.00;;;;;;5078566;28;20285;-54
2022/12/14 12:36:24;;;;;;;9.33;4.50;;;4.10;1.00;;;;;;5074333;28;20577;-55
2022/12/14 12:39:00;;;;;;;7.27;4.67;;;3.90;1.00;;;;;;5074110;28;20199;-55
2022/12/14 12:41:40;;;;;;;10.83;6.17;;;4.20;1.00;;;;;;5078317;28;20861;-60
2022/12/14 12:44:15;;;;;;;9.97;5.30;;;4.40;1.00;;;;;;5079753;28;20216;-54
2022/12/14 12:47:10;;;;;;;7.10;4.53;;;4.70;1.00;;;;;;5075511;28;20250;-56
2022/12/14 12:50:05;;;;;;;9.90;4.57;;;4.60;1.00;;;;;;5078682;28;20209;-56
2022/12/14 12:52:57;;;;;;;10.23;5.47;;;4.40;1.00;;;;;;5075615;28;20202;-55
2022/12/14 12:55:35;;;;;;;9.27;4.67;;;4.40;1.00;;;;;;5068667;28;20206;-56
2022/12/14 12:58:08;;;;;;;8.57;5.03;;;4.60;1.00;;;;;;5055099;28;20227;-55
2022/12/14 13:00:39;;;;;;;10.77;5.27;;;4.40;1.00;;;;;;5076775;28;20259;-56
2022/12/14 13:03:40;;;;;;;10.50;5.33;;;4.30;1.00;;;;;;5006009;28;20216;-54
2022/12/14 13:06:15;;;;;;;9.53;5.03;;;4.30;1.00;;;;;;5072618;28;20340;-54
2022/12/14 13:08:44;;;;;;;8.17;5.07;;;4.10;1.00;;;;;;5074967;28;20213;-55
2022/12/14 13:11:22;;;;;;;8.60;5.20;;;4.20;1.00;;;;;;5075659;28;20336;-55
2022/12/14 13:14:06;;;;;;;11.00;6.03;;;4.10;1.00;;;;;;5075627;28;20665;-55
2022/12/14 13:16:37;;;;;;;10.03;5.20;;;4.00;1.00;;;;;;5074254;28;20202;-53
2022/12/14 13:19:30;;;;;;;9.97;5.70;;;3.80;1.00;;;;;;5076860;28;20195;-55
2022/12/14 13:22:25;;;;;;;8.73;4.97;;;3.80;1.00;;;;;;5073408;28;20196;-54
2022/12/14 13:24:53;;;;;;;7.40;5.13;;;3.90;1.00;;;;;;5074368;28;20194;-55
2022/12/14 13:27:46;;;;;;;8.80;5.80;;;3.90;1.00;;;;;;5076237;28;20218;-56
2022/12/14 13:30:33;;;;;;;10.23;5.60;;;3.90;1.00;;;;;;5076252;28;20190;-55
2022/12/14 13:32:59;;;;;;;7.37;4.60;;;3.90;1.00;;;;;;5077172;28;20681;-55
2022/12/14 13:35:45;;;;;;;12.77;5.20;;;3.70;1.00;;;;;;5076981;28;20255;-55